sensor_id;sensor_type;location;lat;lon;timestamp;temperature;humidity
75091;DHT22;63674;48.048;8.306;2023-08-17T00:02:01;15.30;99.90
75091;DHT22;63674;48.048;8.306;2023-08-17T00:04:29;15.30;99.90
75091;DHT22;63674;48.048;8.306;2023-08-17T00:06:58;15.30;99.90
75091;DHT22;63674;48.048;8.306;2023-08-17T00:09:28;15.30;99.90
75091;DHT22;63674;48.048;8.306;2023-08-17T00:11:57;15.30;99.90
75091;DHT22;63674;48.048;8.306;2023-08-17T00:14:26;15.30;99.90
75091;DHT22;63674;48.048;8.306;2023-08-17T00:16:54;15.20;99.90
75091;DHT22;63674;48.048;8.306;2023-08-17T00:19:23;15.20;99.90
75091;DHT22;63674;48.048;8.306;2023-08-17T00:21:52;15.20;99.90
75091;DHT22;63674;48.048;8.306;2023-08-17T00:24:22;15.20;99.90
75091;DHT22;63674;48.048;8.306;2023-08-17T00:26:52;15.20;99.90
75091;DHT22;63674;48.048;8.306;2023-08-17T00:29:20;15.10;99.90
75091;DHT22;63674;48.048;8.306;2023-08-17T00:31:49;15.20;99.90
75091;DHT22;63674;48.048;8.306;2023-08-17T00:34:19;15.10;99.90
75091;DHT22;63674;48.048;8.306;2023-08-17T00:36:48;15.10;99.90
75091;DHT22;63674;48.048;8.306;2023-08-17T00:39:16;15.00;99.90
75091;DHT22;63674;48.048;8.306;2023-08-17T00:41:46;15.10;99.90
75091;DHT22;63674;48.048;8.306;2023-08-17T00:44:17;15.10;99.90
75091;DHT22;63674;48.048;8.306;2023-08-17T00:46:46;15.10;99.90
75091;DHT22;63674;48.048;8.306;2023-08-17T00:49:14;15.10;99.90
75091;DHT22;63674;48.048;8.306;2023-08-17T00:51:44;15.10;99.90
75091;DHT22;63674;48.048;8.306;2023-08-17T00:54:13;15.10;99.90
75091;DHT22;63674;48.048;8.306;2023-08-17T00:56:43;15.10;99.90
75091;DHT22;63674;48.048;8.306;2023-08-17T00:59:12;15.10;99.90
75091;DHT22;63674;48.048;8.306;2023-08-17T01:01:43;15.10;99.90
75091;DHT22;63674;48.048;8.306;2023-08-17T01:04:11;15.00;99.90
75091;DHT22;63674;48.048;8.306;2023-08-17T01:06:40;15.00;99.90
75091;DHT22;63674;48.048;8.306;2023-08-17T01:09:09;15.00;99.90
75091;DHT22;63674;48.048;8.306;2023-08-17T01:11:44;15.00;99.90
75091;DHT22;63674;48.048;8.306;2023-08-17T01:14:22;14.90;99.90
75091;DHT22;63674;48.048;8.306;2023-08-17T01:17:02;14.90;99.90
75091;DHT22;63674;48.048;8.306;2023-08-17T01:19:32;14.90;99.90
75091;DHT22;63674;48.048;8.306;2023-08-17T01:22:04;14.90;99.90
75091;DHT22;63674;48.048;8.306;2023-08-17T01:24:35;14.90;99.90
75091;DHT22;63674;48.048;8.306;2023-08-17T01:27:03;14.80;99.90
75091;DHT22;63674;48.048;8.306;2023-08-17T01:29:32;14.80;99.90
75091;DHT22;63674;48.048;8.306;2023-08-17T01:32:06;14.80;99.90
75091;DHT22;63674;48.048;8.306;2023-08-17T01:34:40;14.70;99.90
75091;DHT22;63674;48.048;8.306;2023-08-17T01:37:14;14.70;99.90
75091;DHT22;63674;48.048;8.306;2023-08-17T01:39:50;14.70;99.90
75091;DHT22;63674;48.048;8.306;2023-08-17T01:42:21;14.70;99.90
75091;DHT22;63674;48.048;8.306;2023-08-17T01:44:50;14.60;99.90
75091;DHT22;63674;48.048;8.306;2023-08-17T01:47:21;14.70;99.90
75091;DHT22;63674;48.048;8.306;2023-08-17T01:49:50;14.70;99.90
75091;DHT22;63674;48.048;8.306;2023-08-17T01:52:19;14.60;99.90
75091;DHT22;63674;48.048;8.306;2023-08-17T01:54:49;14.60;99.90
75091;DHT22;63674;48.048;8.306;2023-08-17T01:57:18;14.60;99.90
75091;DHT22;63674;48.048;8.306;2023-08-17T01:59:47;14.60;99.90
75091;DHT22;63674;48.048;8.306;2023-08-17T02:02:16;14.60;99.90
75091;DHT22;63674;48.048;8.306;2023-08-17T02:04:44;14.60;99.90
75091;DHT22;63674;48.048;8.306;2023-08-17T02:07:13;14.60;99.90
75091;DHT22;63674;48.048;8.306;2023-08-17T02:09:42;14.60;99.90
75091;DHT22;63674;48.048;8.306;2023-08-17T02:12:12;14.50;99.90
75091;DHT22;63674;48.048;8.306;2023-08-17T02:14:40;14.50;99.90
75091;DHT22;63674;48.048;8.306;2023-08-17T02:17:09;14.50;99.90
75091;DHT22;63674;48.048;8.306;2023-08-17T02:19:38;14.40;99.90
75091;DHT22;63674;48.048;8.306;2023-08-17T02:22:06;14.40;99.90
75091;DHT22;63674;48.048;8.306;2023-08-17T02:24:35;14.40;99.90
75091;DHT22;63674;48.048;8.306;2023-08-17T02:27:04;14.30;99.90
75091;DHT22;63674;48.048;8.306;2023-08-17T02:29:34;14.30;99.90
75091;DHT22;63674;48.048;8.306;2023-08-17T02:32:03;14.30;99.90
75091;DHT22;63674;48.048;8.306;2023-08-17T02:34:32;14.30;99.90
75091;DHT22;63674;48.048;8.306;2023-08-17T02:37:01;14.30;99.90
75091;DHT22;63674;48.048;8.306;2023-08-17T02:39:29;14.30;99.90
75091;DHT22;63674;48.048;8.306;2023-08-17T02:41:58;14.30;99.90
75091;DHT22;63674;48.048;8.306;2023-08-17T02:44:27;14.30;99.90
75091;DHT22;63674;48.048;8.306;2023-08-17T02:46:57;14.20;99.90
75091;DHT22;63674;48.048;8.306;2023-08-17T02:49:26;14.20;99.90
75091;DHT22;63674;48.048;8.306;2023-08-17T02:51:54;14.20;99.90
75091;DHT22;63674;48.048;8.306;2023-08-17T02:54:23;14.20;99.90
75091;DHT22;63674;48.048;8.306;2023-08-17T02:56:52;14.20;99.90
75091;DHT22;63674;48.048;8.306;2023-08-17T02:59:21;14.10;99.90
75091;DHT22;63674;48.048;8.306;2023-08-17T03:01:49;14.10;99.90
75091;DHT22;63674;48.048;8.306;2023-08-17T03:04:19;14.10;99.90
75091;DHT22;63674;48.048;8.306;2023-08-17T03:06:48;14.10;99.90
75091;DHT22;63674;48.048;8.306;2023-08-17T03:09:17;14.00;99.90
75091;DHT22;63674;48.048;8.306;2023-08-17T03:11:46;14.00;99.90
75091;DHT22;63674;48.048;8.306;2023-08-17T03:14:15;14.00;99.90
75091;DHT22;63674;48.048;8.306;2023-08-17T03:16:43;14.00;99.90
75091;DHT22;63674;48.048;8.306;2023-08-17T03:19:12;13.90;99.90
75091;DHT22;63674;48.048;8.306;2023-08-17T03:21:42;13.90;99.90
75091;DHT22;63674;48.048;8.306;2023-08-17T03:24:11;13.90;99.90
75091;DHT22;63674;48.048;8.306;2023-08-17T03:26:39;13.80;99.90
75091;DHT22;63674;48.048;8.306;2023-08-17T03:29:08;13.80;99.90
75091;DHT22;63674;48.048;8.306;2023-08-17T03:31:37;13.80;99.90
75091;DHT22;63674;48.048;8.306;2023-08-17T03:34:05;13.70;99.90
75091;DHT22;63674;48.048;8.306;2023-08-17T03:36:34;13.80;99.90
75091;DHT22;63674;48.048;8.306;2023-08-17T03:39:04;15.10;99.90
75091;DHT22;63674;48.048;8.306;2023-08-17T03:41:33;13.70;99.90
75091;DHT22;63674;48.048;8.306;2023-08-17T03:44:04;13.70;99.90
75091;DHT22;63674;48.048;8.306;2023-08-17T03:46:34;13.70;99.90
75091;DHT22;63674;48.048;8.306;2023-08-17T03:49:03;13.70;99.90
75091;DHT22;63674;48.048;8.306;2023-08-17T03:51:31;13.70;99.90
75091;DHT22;63674;48.048;8.306;2023-08-17T03:54:00;13.40;99.90
75091;DHT22;63674;48.048;8.306;2023-08-17T03:56:30;13.60;99.90
75091;DHT22;63674;48.048;8.306;2023-08-17T03:58:59;13.60;99.90
75091;DHT22;63674;48.048;8.306;2023-08-17T04:01:28;13.60;99.90
75091;DHT22;63674;48.048;8.306;2023-08-17T04:03:58;13.50;99.90
75091;DHT22;63674;48.048;8.306;2023-08-17T04:06:27;13.60;99.90
75091;DHT22;63674;48.048;8.306;2023-08-17T04:08:56;13.50;99.90
75091;DHT22;63674;48.048;8.306;2023-08-17T04:11:25;13.50;99.90
75091;DHT22;63674;48.048;8.306;2023-08-17T04:13:55;13.50;99.90
75091;DHT22;63674;48.048;8.306;2023-08-17T04:16:24;13.50;99.90
75091;DHT22;63674;48.048;8.306;2023-08-17T04:18:52;13.50;99.90
75091;DHT22;63674;48.048;8.306;2023-08-17T04:21:21;13.60;99.90
75091;DHT22;63674;48.048;8.306;2023-08-17T04:23:50;13.50;99.90
75091;DHT22;63674;48.048;8.306;2023-08-17T04:26:18;13.50;99.90
75091;DHT22;63674;48.048;8.306;2023-08-17T04:28:47;13.50;99.90
75091;DHT22;63674;48.048;8.306;2023-08-17T04:31:17;13.50;99.90
75091;DHT22;63674;48.048;8.306;2023-08-17T04:33:46;13.50;99.90
75091;DHT22;63674;48.048;8.306;2023-08-17T04:36:14;13.50;99.90
75091;DHT22;63674;48.048;8.306;2023-08-17T04:38:43;13.50;99.90
75091;DHT22;63674;48.048;8.306;2023-08-17T04:41:12;13.50;99.90
75091;DHT22;63674;48.048;8.306;2023-08-17T04:43:40;13.50;99.90
75091;DHT22;63674;48.048;8.306;2023-08-17T04:46:10;13.50;99.90
75091;DHT22;63674;48.048;8.306;2023-08-17T04:48:40;13.50;99.90
75091;DHT22;63674;48.048;8.306;2023-08-17T04:51:09;13.50;99.90
75091;DHT22;63674;48.048;8.306;2023-08-17T04:53:37;13.50;99.90
75091;DHT22;63674;48.048;8.306;2023-08-17T04:56:06;13.50;99.90
75091;DHT22;63674;48.048;8.306;2023-08-17T04:58:35;13.50;99.90
75091;DHT22;63674;48.048;8.306;2023-08-17T05:01:03;13.60;99.90
75091;DHT22;63674;48.048;8.306;2023-08-17T05:03:32;13.60;99.90
75091;DHT22;63674;48.048;8.306;2023-08-17T05:06:02;13.70;99.90
75091;DHT22;63674;48.048;8.306;2023-08-17T05:08:31;13.70;99.90
75091;DHT22;63674;48.048;8.306;2023-08-17T05:11:00;13.70;99.90
75091;DHT22;63674;48.048;8.306;2023-08-17T05:13:28;13.70;99.90
75091;DHT22;63674;48.048;8.306;2023-08-17T05:16:00;13.80;99.90
75091;DHT22;63674;48.048;8.306;2023-08-17T05:18:29;13.80;99.90
75091;DHT22;63674;48.048;8.306;2023-08-17T05:20:58;13.70;99.90
75091;DHT22;63674;48.048;8.306;2023-08-17T05:23:29;13.80;99.90
75091;DHT22;63674;48.048;8.306;2023-08-17T05:25:57;13.80;99.90
75091;DHT22;63674;48.048;8.306;2023-08-17T05:28:26;13.80;99.90
75091;DHT22;63674;48.048;8.306;2023-08-17T05:30:55;13.90;99.90
75091;DHT22;63674;48.048;8.306;2023-08-17T05:33:24;13.90;99.90
75091;DHT22;63674;48.048;8.306;2023-08-17T05:35:54;14.00;99.90
75091;DHT22;63674;48.048;8.306;2023-08-17T05:38:23;14.00;99.90
75091;DHT22;63674;48.048;8.306;2023-08-17T05:40:55;14.00;99.90
75091;DHT22;63674;48.048;8.306;2023-08-17T05:43:25;14.10;99.90
75091;DHT22;63674;48.048;8.306;2023-08-17T05:45:57;14.10;99.90
75091;DHT22;63674;48.048;8.306;2023-08-17T05:48:26;14.10;99.90
75091;DHT22;63674;48.048;8.306;2023-08-17T05:50:55;14.10;99.90
75091;DHT22;63674;48.048;8.306;2023-08-17T05:53:24;14.20;99.90
75091;DHT22;63674;48.048;8.306;2023-08-17T05:55:53;14.10;99.90
75091;DHT22;63674;48.048;8.306;2023-08-17T05:58:23;14.20;99.90
75091;DHT22;63674;48.048;8.306;2023-08-17T06:00:51;14.30;99.90
75091;DHT22;63674;48.048;8.306;2023-08-17T06:03:20;14.30;99.90
75091;DHT22;63674;48.048;8.306;2023-08-17T06:05:52;14.30;99.90
75091;DHT22;63674;48.048;8.306;2023-08-17T06:08:21;14.40;99.90
75091;DHT22;63674;48.048;8.306;2023-08-17T06:10:50;14.40;99.90
75091;DHT22;63674;48.048;8.306;2023-08-17T06:13:20;14.50;99.90
75091;DHT22;63674;48.048;8.306;2023-08-17T06:15:48;14.60;99.90
75091;DHT22;63674;48.048;8.306;2023-08-17T06:18:17;14.60;99.90
75091;DHT22;63674;48.048;8.306;2023-08-17T06:20:47;14.70;99.90
75091;DHT22;63674;48.048;8.306;2023-08-17T06:23:19;14.80;99.90
75091;DHT22;63674;48.048;8.306;2023-08-17T06:25:47;14.80;99.90
75091;DHT22;63674;48.048;8.306;2023-08-17T06:28:16;14.90;99.90
75091;DHT22;63674;48.048;8.306;2023-08-17T06:30:46;15.00;99.90
75091;DHT22;63674;48.048;8.306;2023-08-17T06:33:15;15.10;99.90
75091;DHT22;63674;48.048;8.306;2023-08-17T06:35:43;15.20;99.90
75091;DHT22;63674;48.048;8.306;2023-08-17T06:38:12;15.20;99.90
75091;DHT22;63674;48.048;8.306;2023-08-17T06:40:41;15.30;99.90
75091;DHT22;63674;48.048;8.306;2023-08-17T06:43:10;15.30;99.90
75091;DHT22;63674;48.048;8.306;2023-08-17T06:45:38;15.30;99.90
75091;DHT22;63674;48.048;8.306;2023-08-17T06:48:08;15.50;99.90
75091;DHT22;63674;48.048;8.306;2023-08-17T06:50:37;15.50;99.90
75091;DHT22;63674;48.048;8.306;2023-08-17T06:53:06;15.60;99.90
75091;DHT22;63674;48.048;8.306;2023-08-17T06:55:35;15.70;99.90
75091;DHT22;63674;48.048;8.306;2023-08-17T06:58:04;15.80;99.90
75091;DHT22;63674;48.048;8.306;2023-08-17T07:00:33;15.90;99.90
75091;DHT22;63674;48.048;8.306;2023-08-17T07:03:03;16.00;99.90
75091;DHT22;63674;48.048;8.306;2023-08-17T07:05:34;16.10;99.90
75091;DHT22;63674;48.048;8.306;2023-08-17T07:08:03;16.20;99.90
75091;DHT22;63674;48.048;8.306;2023-08-17T07:10:34;16.30;99.90
75091;DHT22;63674;48.048;8.306;2023-08-17T07:13:03;16.40;99.90
75091;DHT22;63674;48.048;8.306;2023-08-17T07:15:32;16.50;99.90
75091;DHT22;63674;48.048;8.306;2023-08-17T07:18:01;16.60;99.90
75091;DHT22;63674;48.048;8.306;2023-08-17T07:20:30;16.70;99.90
75091;DHT22;63674;48.048;8.306;2023-08-17T07:23:00;16.90;99.90
75091;DHT22;63674;48.048;8.306;2023-08-17T07:25:30;17.00;99.90
75091;DHT22;63674;48.048;8.306;2023-08-17T07:27:59;17.20;99.90
75091;DHT22;63674;48.048;8.306;2023-08-17T07:30:28;17.40;99.90
75091;DHT22;63674;48.048;8.306;2023-08-17T07:32:57;17.50;99.90
75091;DHT22;63674;48.048;8.306;2023-08-17T07:35:26;17.80;99.90
75091;DHT22;63674;48.048;8.306;2023-08-17T07:37:55;18.20;99.90
75091;DHT22;63674;48.048;8.306;2023-08-17T07:40:36;18.80;99.90
75091;DHT22;63674;48.048;8.306;2023-08-17T07:43:04;19.30;99.90
75091;DHT22;63674;48.048;8.306;2023-08-17T07:45:33;19.70;99.90
75091;DHT22;63674;48.048;8.306;2023-08-17T07:48:03;20.10;99.90
75091;DHT22;63674;48.048;8.306;2023-08-17T07:50:32;20.60;99.90
75091;DHT22;63674;48.048;8.306;2023-08-17T07:53:01;20.80;99.90
75091;DHT22;63674;48.048;8.306;2023-08-17T07:55:29;21.00;99.90
75091;DHT22;63674;48.048;8.306;2023-08-17T07:57:59;21.40;99.90
75091;DHT22;63674;48.048;8.306;2023-08-17T08:00:28;21.70;99.90
75091;DHT22;63674;48.048;8.306;2023-08-17T08:02:56;21.90;99.90
75091;DHT22;63674;48.048;8.306;2023-08-17T08:05:26;22.10;99.90
75091;DHT22;63674;48.048;8.306;2023-08-17T08:07:55;22.30;99.90
75091;DHT22;63674;48.048;8.306;2023-08-17T08:10:23;22.40;99.90
75091;DHT22;63674;48.048;8.306;2023-08-17T08:12:52;22.60;99.90
75091;DHT22;63674;48.048;8.306;2023-08-17T08:15:22;22.70;99.90
75091;DHT22;63674;48.048;8.306;2023-08-17T08:17:51;23.00;99.90
75091;DHT22;63674;48.048;8.306;2023-08-17T08:20:20;23.20;99.90
75091;DHT22;63674;48.048;8.306;2023-08-17T08:22:49;23.30;99.90
75091;DHT22;63674;48.048;8.306;2023-08-17T08:25:18;23.70;99.90
75091;DHT22;63674;48.048;8.306;2023-08-17T08:27:46;23.70;99.90
75091;DHT22;63674;48.048;8.306;2023-08-17T08:30:15;23.60;99.90
75091;DHT22;63674;48.048;8.306;2023-08-17T08:32:46;23.60;99.90
75091;DHT22;63674;48.048;8.306;2023-08-17T08:35:15;23.70;99.90
75091;DHT22;63674;48.048;8.306;2023-08-17T08:37:44;23.80;99.90
75091;DHT22;63674;48.048;8.306;2023-08-17T08:40:13;23.70;99.90
75091;DHT22;63674;48.048;8.306;2023-08-17T08:42:43;23.70;99.90
75091;DHT22;63674;48.048;8.306;2023-08-17T08:45:12;23.90;99.90
75091;DHT22;63674;48.048;8.306;2023-08-17T08:47:42;24.40;99.90
75091;DHT22;63674;48.048;8.306;2023-08-17T08:50:17;24.70;99.90
75091;DHT22;63674;48.048;8.306;2023-08-17T08:52:53;25.10;99.90
75091;DHT22;63674;48.048;8.306;2023-08-17T08:55:29;25.40;99.90
75091;DHT22;63674;48.048;8.306;2023-08-17T08:58:11;25.10;99.90
75091;DHT22;63674;48.048;8.306;2023-08-17T09:00:41;25.00;99.90
75091;DHT22;63674;48.048;8.306;2023-08-17T09:03:15;25.30;99.90
75091;DHT22;63674;48.048;8.306;2023-08-17T09:05:47;25.80;99.90
75091;DHT22;63674;48.048;8.306;2023-08-17T09:08:21;26.00;99.90
75091;DHT22;63674;48.048;8.306;2023-08-17T09:10:53;26.30;99.90
75091;DHT22;63674;48.048;8.306;2023-08-17T09:13:21;26.50;99.90
75091;DHT22;63674;48.048;8.306;2023-08-17T09:15:50;26.80;99.90
75091;DHT22;63674;48.048;8.306;2023-08-17T09:18:21;27.10;99.90
75091;DHT22;63674;48.048;8.306;2023-08-17T09:20:52;27.30;99.90
75091;DHT22;63674;48.048;8.306;2023-08-17T09:23:21;27.40;99.90
75091;DHT22;63674;48.048;8.306;2023-08-17T09:25:51;27.30;99.90
75091;DHT22;63674;48.048;8.306;2023-08-17T09:28:25;27.40;99.90
75091;DHT22;63674;48.048;8.306;2023-08-17T09:30:54;27.70;99.90
75091;DHT22;63674;48.048;8.306;2023-08-17T09:33:27;27.80;98.60
75091;DHT22;63674;48.048;8.306;2023-08-17T09:35:57;28.00;99.90
75091;DHT22;63674;48.048;8.306;2023-08-17T09:38:27;28.10;91.60
75091;DHT22;63674;48.048;8.306;2023-08-17T09:40:57;28.00;92.70
75091;DHT22;63674;48.048;8.306;2023-08-17T09:43:26;28.00;93.10
75091;DHT22;63674;48.048;8.306;2023-08-17T09:45:58;28.00;99.90
75091;DHT22;63674;48.048;8.306;2023-08-17T09:48:30;28.00;94.50
75091;DHT22;63674;48.048;8.306;2023-08-17T09:51:00;27.40;91.70
75091;DHT22;63674;48.048;8.306;2023-08-17T09:53:29;27.70;94.50
75091;DHT22;63674;48.048;8.306;2023-08-17T09:56:05;27.70;90.70
75091;DHT22;63674;48.048;8.306;2023-08-17T09:58:43;27.40;93.70
75091;DHT22;63674;48.048;8.306;2023-08-17T10:01:12;27.40;91.60
75091;DHT22;63674;48.048;8.306;2023-08-17T10:03:43;27.40;93.20
75091;DHT22;63674;48.048;8.306;2023-08-17T10:06:13;27.40;90.00
75091;DHT22;63674;48.048;8.306;2023-08-17T10:08:47;27.30;85.80
75091;DHT22;63674;48.048;8.306;2023-08-17T10:11:19;27.20;93.40
75091;DHT22;63674;48.048;8.306;2023-08-17T10:13:51;27.50;95.00
75091;DHT22;63674;48.048;8.306;2023-08-17T10:16:23;27.60;80.90
75091;DHT22;63674;48.048;8.306;2023-08-17T10:19:05;27.50;90.80
75091;DHT22;63674;48.048;8.306;2023-08-17T10:21:39;27.10;61.60
75091;DHT22;63674;48.048;8.306;2023-08-17T10:24:09;26.50;63.50
75091;DHT22;63674;48.048;8.306;2023-08-17T10:26:38;26.10;76.20
75091;DHT22;63674;48.048;8.306;2023-08-17T10:29:08;25.60;71.10
75091;DHT22;63674;48.048;8.306;2023-08-17T10:31:44;25.00;82.80
75091;DHT22;63674;48.048;8.306;2023-08-17T10:34:15;25.00;85.10
75091;DHT22;63674;48.048;8.306;2023-08-17T10:36:44;24.80;81.70
75091;DHT22;63674;48.048;8.306;2023-08-17T10:39:24;24.70;75.50
75091;DHT22;63674;48.048;8.306;2023-08-17T10:41:57;24.40;81.40
75091;DHT22;63674;48.048;8.306;2023-08-17T10:44:39;24.40;83.00
75091;DHT22;63674;48.048;8.306;2023-08-17T10:47:22;24.80;91.60
75091;DHT22;63674;48.048;8.306;2023-08-17T10:49:58;24.80;92.60
75091;DHT22;63674;48.048;8.306;2023-08-17T10:52:29;24.50;81.70
75091;DHT22;63674;48.048;8.306;2023-08-17T10:55:03;24.40;92.00
75091;DHT22;63674;48.048;8.306;2023-08-17T10:57:36;24.20;78.50
75091;DHT22;63674;48.048;8.306;2023-08-17T11:00:15;24.00;80.70
75091;DHT22;63674;48.048;8.306;2023-08-17T11:02:54;24.00;82.50
75091;DHT22;63674;48.048;8.306;2023-08-17T11:05:39;23.90;84.10
75091;DHT22;63674;48.048;8.306;2023-08-17T11:08:10;23.80;82.10
75091;DHT22;63674;48.048;8.306;2023-08-17T11:10:48;23.70;76.10
75091;DHT22;63674;48.048;8.306;2023-08-17T11:13:27;23.60;76.30
75091;DHT22;63674;48.048;8.306;2023-08-17T11:15:58;23.50;82.00
75091;DHT22;63674;48.048;8.306;2023-08-17T11:18:31;23.40;80.30
75091;DHT22;63674;48.048;8.306;2023-08-17T11:21:03;23.30;78.50
75091;DHT22;63674;48.048;8.306;2023-08-17T11:23:34;23.20;84.90
75091;DHT22;63674;48.048;8.306;2023-08-17T11:26:04;23.00;84.10
75091;DHT22;63674;48.048;8.306;2023-08-17T11:28:34;23.00;97.60
75091;DHT22;63674;48.048;8.306;2023-08-17T11:31:12;22.80;99.60
75091;DHT22;63674;48.048;8.306;2023-08-17T11:33:43;22.60;99.90
75091;DHT22;63674;48.048;8.306;2023-08-17T11:36:15;22.40;99.90
75091;DHT22;63674;48.048;8.306;2023-08-17T11:38:44;22.10;99.90
75091;DHT22;63674;48.048;8.306;2023-08-17T11:41:14;22.00;99.90
75091;DHT22;63674;48.048;8.306;2023-08-17T11:43:45;21.90;99.90
75091;DHT22;63674;48.048;8.306;2023-08-17T11:46:15;22.00;99.90
75091;DHT22;63674;48.048;8.306;2023-08-17T11:48:44;22.30;99.90
75091;DHT22;63674;48.048;8.306;2023-08-17T11:51:14;22.60;99.90
75091;DHT22;63674;48.048;8.306;2023-08-17T11:53:43;23.10;99.90
75091;DHT22;63674;48.048;8.306;2023-08-17T11:56:15;23.50;99.90
75091;DHT22;63674;48.048;8.306;2023-08-17T11:58:45;24.10;93.60
75091;DHT22;63674;48.048;8.306;2023-08-17T12:01:14;24.60;81.90
75091;DHT22;63674;48.048;8.306;2023-08-17T12:03:44;25.00;91.40
75091;DHT22;63674;48.048;8.306;2023-08-17T12:06:15;25.60;91.80
75091;DHT22;63674;48.048;8.306;2023-08-17T12:08:46;26.20;82.20
75091;DHT22;63674;48.048;8.306;2023-08-17T12:11:15;26.70;77.40
75091;DHT22;63674;48.048;8.306;2023-08-17T12:13:49;27.00;69.60
75091;DHT22;63674;48.048;8.306;2023-08-17T12:16:19;27.20;79.70
75091;DHT22;63674;48.048;8.306;2023-08-17T12:18:49;27.50;76.20
75091;DHT22;63674;48.048;8.306;2023-08-17T12:21:21;27.60;77.10
75091;DHT22;63674;48.048;8.306;2023-08-17T12:23:50;27.60;63.20
75091;DHT22;63674;48.048;8.306;2023-08-17T12:26:19;27.60;65.30
75091;DHT22;63674;48.048;8.306;2023-08-17T12:28:49;27.90;61.60
75091;DHT22;63674;48.048;8.306;2023-08-17T12:31:21;28.00;65.80
75091;DHT22;63674;48.048;8.306;2023-08-17T12:33:51;28.00;52.90
75091;DHT22;63674;48.048;8.306;2023-08-17T12:36:21;27.80;63.10
75091;DHT22;63674;48.048;8.306;2023-08-17T12:38:50;28.00;64.20
75091;DHT22;63674;48.048;8.306;2023-08-17T12:41:19;28.10;52.30
75091;DHT22;63674;48.048;8.306;2023-08-17T12:43:47;28.10;53.40
75091;DHT22;63674;48.048;8.306;2023-08-17T12:46:16;28.10;52.00
75091;DHT22;63674;48.048;8.306;2023-08-17T12:48:45;28.10;49.90
75091;DHT22;63674;48.048;8.306;2023-08-17T12:51:14;28.00;47.30
75091;DHT22;63674;48.048;8.306;2023-08-17T12:53:43;27.90;49.50
75091;DHT22;63674;48.048;8.306;2023-08-17T12:56:16;27.90;50.00
75091;DHT22;63674;48.048;8.306;2023-08-17T12:58:45;27.80;49.40
75091;DHT22;63674;48.048;8.306;2023-08-17T13:01:13;27.90;52.00
75091;DHT22;63674;48.048;8.306;2023-08-17T13:03:42;28.10;59.40
75091;DHT22;63674;48.048;8.306;2023-08-17T13:06:10;28.40;55.00
75091;DHT22;63674;48.048;8.306;2023-08-17T13:08:39;28.60;51.10
75091;DHT22;63674;48.048;8.306;2023-08-17T13:11:10;28.70;58.90
75091;DHT22;63674;48.048;8.306;2023-08-17T13:13:39;28.80;50.10
75091;DHT22;63674;48.048;8.306;2023-08-17T13:16:07;28.60;56.80
75091;DHT22;63674;48.048;8.306;2023-08-17T13:18:38;28.10;55.10
75091;DHT22;63674;48.048;8.306;2023-08-17T13:21:06;27.60;65.80
75091;DHT22;63674;48.048;8.306;2023-08-17T13:23:38;27.10;71.20
75091;DHT22;63674;48.048;8.306;2023-08-17T13:26:07;26.80;75.20
75091;DHT22;63674;48.048;8.306;2023-08-17T13:28:37;26.80;82.70
75091;DHT22;63674;48.048;8.306;2023-08-17T13:31:06;27.00;80.40
75091;DHT22;63674;48.048;8.306;2023-08-17T13:33:50;26.90;75.80
75091;DHT22;63674;48.048;8.306;2023-08-17T13:36:19;26.90;82.60
75091;DHT22;63674;48.048;8.306;2023-08-17T13:38:48;27.10;78.40
75091;DHT22;63674;48.048;8.306;2023-08-17T13:41:18;27.20;86.20
75091;DHT22;63674;48.048;8.306;2023-08-17T13:43:46;27.30;85.40
75091;DHT22;63674;48.048;8.306;2023-08-17T13:46:15;27.30;80.70
75091;DHT22;63674;48.048;8.306;2023-08-17T13:48:44;26.90;76.70
75091;DHT22;63674;48.048;8.306;2023-08-17T13:51:12;26.50;81.10
75091;DHT22;63674;48.048;8.306;2023-08-17T13:54:02;26.10;77.50
75091;DHT22;63674;48.048;8.306;2023-08-17T13:56:32;25.90;82.80
75091;DHT22;63674;48.048;8.306;2023-08-17T13:59:00;25.90;91.80
75091;DHT22;63674;48.048;8.306;2023-08-17T14:01:29;25.80;99.90
75091;DHT22;63674;48.048;8.306;2023-08-17T14:03:58;25.80;86.20
75091;DHT22;63674;48.048;8.306;2023-08-17T14:06:28;25.80;86.00
75091;DHT22;63674;48.048;8.306;2023-08-17T14:08:56;26.00;88.00
75091;DHT22;63674;48.048;8.306;2023-08-17T14:11:25;26.40;95.60
75091;DHT22;63674;48.048;8.306;2023-08-17T14:13:55;26.80;87.40
75091;DHT22;63674;48.048;8.306;2023-08-17T14:16:23;27.10;85.40
75091;DHT22;63674;48.048;8.306;2023-08-17T14:18:52;27.20;97.30
75091;DHT22;63674;48.048;8.306;2023-08-17T14:21:21;27.10;83.20
75091;DHT22;63674;48.048;8.306;2023-08-17T14:23:50;27.00;73.10
75091;DHT22;63674;48.048;8.306;2023-08-17T14:26:19;26.90;86.30
75091;DHT22;63674;48.048;8.306;2023-08-17T14:28:48;26.70;77.90
75091;DHT22;63674;48.048;8.306;2023-08-17T14:31:18;26.40;80.70
75091;DHT22;63674;48.048;8.306;2023-08-17T14:33:47;26.10;91.80
75091;DHT22;63674;48.048;8.306;2023-08-17T14:36:16;25.80;93.40
75091;DHT22;63674;48.048;8.306;2023-08-17T14:38:46;25.60;97.90
75091;DHT22;63674;48.048;8.306;2023-08-17T14:41:15;25.50;99.90
75091;DHT22;63674;48.048;8.306;2023-08-17T14:43:44;25.40;99.00
75091;DHT22;63674;48.048;8.306;2023-08-17T14:46:12;25.40;99.90
75091;DHT22;63674;48.048;8.306;2023-08-17T14:48:43;25.30;99.90
75091;DHT22;63674;48.048;8.306;2023-08-17T14:51:11;25.40;99.90
75091;DHT22;63674;48.048;8.306;2023-08-17T14:53:40;25.40;99.90
75091;DHT22;63674;48.048;8.306;2023-08-17T14:56:09;25.40;99.90
75091;DHT22;63674;48.048;8.306;2023-08-17T14:58:38;25.30;99.90
75091;DHT22;63674;48.048;8.306;2023-08-17T15:01:06;25.30;99.90
75091;DHT22;63674;48.048;8.306;2023-08-17T15:03:35;25.00;99.50
75091;DHT22;63674;48.048;8.306;2023-08-17T15:06:06;25.10;99.90
75091;DHT22;63674;48.048;8.306;2023-08-17T15:08:54;25.10;99.90
75091;DHT22;63674;48.048;8.306;2023-08-17T15:11:23;25.30;99.90
75091;DHT22;63674;48.048;8.306;2023-08-17T15:13:51;25.50;98.20
75091;DHT22;63674;48.048;8.306;2023-08-17T15:16:20;25.60;99.90
75091;DHT22;63674;48.048;8.306;2023-08-17T15:18:52;25.70;99.90
75091;DHT22;63674;48.048;8.306;2023-08-17T15:21:23;25.90;99.90
75091;DHT22;63674;48.048;8.306;2023-08-17T15:23:52;25.80;99.90
75091;DHT22;63674;48.048;8.306;2023-08-17T15:26:20;25.80;99.40
75091;DHT22;63674;48.048;8.306;2023-08-17T15:28:49;25.80;94.80
75091;DHT22;63674;48.048;8.306;2023-08-17T15:31:17;25.70;97.30
75091;DHT22;63674;48.048;8.306;2023-08-17T15:33:46;25.70;99.90
75091;DHT22;63674;48.048;8.306;2023-08-17T15:36:15;25.80;99.90
75091;DHT22;63674;48.048;8.306;2023-08-17T15:38:46;25.90;99.50
75091;DHT22;63674;48.048;8.306;2023-08-17T15:41:15;26.00;98.20
75091;DHT22;63674;48.048;8.306;2023-08-17T15:43:44;26.00;87.60
75091;DHT22;63674;48.048;8.306;2023-08-17T15:46:13;25.90;92.60
75091;DHT22;63674;48.048;8.306;2023-08-17T15:48:42;26.00;99.90